Terminal Aerodrome Forecast
Issued by NWS

Current Version | Previous Version | Text Only | Print | Product List | Glossary On
Versions: 1 2 3 4 5 6 7 8 9 10 11 12 13 14 15 16
693
FTUS46 KSEW 271120
TAFOLM
TAF
KOLM 271120Z 2712/2812 21008KT P6SM OVC022
     FM272000 24006KT P6SM SCT040 SCT200
     FM280000 24008KT P6SM SCT200
     FM280900 VRB04KT P6SM SCT020
     FM281100 21006KT P6SM BKN020=

USA.gov is the U.S. government's official web portal to all federal, state and local government web resources and services.